sensor_id;sensor_type;location;lat;lon;timestamp;P1;durP1;ratioP1;P2;durP2;ratioP2
18322;SDS011;9287;49.456;11.064;2024-03-22T00:02:14;17.53;;;13.83;;
18322;SDS011;9287;49.456;11.064;2024-03-22T00:04:41;17.03;;;13.37;;
18322;SDS011;9287;49.456;11.064;2024-03-22T00:07:07;19.07;;;14.07;;
18322;SDS011;9287;49.456;11.064;2024-03-22T00:09:33;20.83;;;14.60;;
18322;SDS011;9287;49.456;11.064;2024-03-22T00:11:59;21.70;;;14.03;;
18322;SDS011;9287;49.456;11.064;2024-03-22T00:14:26;21.90;;;14.27;;
18322;SDS011;9287;49.456;11.064;2024-03-22T00:16:52;18.60;;;13.67;;
18322;SDS011;9287;49.456;11.064;2024-03-22T00:19:20;18.10;;;13.50;;
18322;SDS011;9287;49.456;11.064;2024-03-22T00:21:46;20.07;;;14.80;;
18322;SDS011;9287;49.456;11.064;2024-03-22T00:24:12;18.23;;;13.87;;
18322;SDS011;9287;49.456;11.064;2024-03-22T00:26:39;19.83;;;14.40;;
18322;SDS011;9287;49.456;11.064;2024-03-22T00:29:05;18.37;;;14.37;;
18322;SDS011;9287;49.456;11.064;2024-03-22T00:31:31;19.03;;;14.23;;
18322;SDS011;9287;49.456;11.064;2024-03-22T00:33:58;22.20;;;15.47;;
18322;SDS011;9287;49.456;11.064;2024-03-22T00:36:25;23.77;;;15.93;;
18322;SDS011;9287;49.456;11.064;2024-03-22T00:38:52;23.10;;;15.40;;
18322;SDS011;9287;49.456;11.064;2024-03-22T00:41:18;22.63;;;16.03;;
18322;SDS011;9287;49.456;11.064;2024-03-22T00:43:45;25.77;;;16.17;;
18322;SDS011;9287;49.456;11.064;2024-03-22T00:46:11;25.17;;;16.53;;
18322;SDS011;9287;49.456;11.064;2024-03-22T00:48:37;25.17;;;17.47;;
18322;SDS011;9287;49.456;11.064;2024-03-22T00:51:04;28.60;;;17.30;;
18322;SDS011;9287;49.456;11.064;2024-03-22T00:53:32;27.13;;;16.90;;
18322;SDS011;9287;49.456;11.064;2024-03-22T00:55:58;29.07;;;18.00;;
18322;SDS011;9287;49.456;11.064;2024-03-22T00:58:26;26.10;;;16.60;;
18322;SDS011;9287;49.456;11.064;2024-03-22T01:00:52;28.43;;;18.10;;
18322;SDS011;9287;49.456;11.064;2024-03-22T01:03:19;26.07;;;17.00;;
18322;SDS011;9287;49.456;11.064;2024-03-22T01:05:45;23.43;;;15.77;;
18322;SDS011;9287;49.456;11.064;2024-03-22T01:08:12;23.17;;;16.57;;
18322;SDS011;9287;49.456;11.064;2024-03-22T01:10:39;20.77;;;15.70;;
18322;SDS011;9287;49.456;11.064;2024-03-22T01:13:07;22.20;;;16.30;;
18322;SDS011;9287;49.456;11.064;2024-03-22T01:15:32;22.77;;;16.53;;
18322;SDS011;9287;49.456;11.064;2024-03-22T01:17:59;21.87;;;15.73;;
18322;SDS011;9287;49.456;11.064;2024-03-22T01:20:25;23.20;;;16.10;;
18322;SDS011;9287;49.456;11.064;2024-03-22T01:22:52;24.67;;;16.13;;
18322;SDS011;9287;49.456;11.064;2024-03-22T01:25:18;21.23;;;15.83;;
18322;SDS011;9287;49.456;11.064;2024-03-22T01:27:46;21.90;;;15.77;;
18322;SDS011;9287;49.456;11.064;2024-03-22T01:30:12;23.57;;;16.40;;
18322;SDS011;9287;49.456;11.064;2024-03-22T01:32:39;21.37;;;15.20;;
18322;SDS011;9287;49.456;11.064;2024-03-22T01:35:06;23.40;;;16.27;;
18322;SDS011;9287;49.456;11.064;2024-03-22T01:37:32;20.67;;;15.47;;
18322;SDS011;9287;49.456;11.064;2024-03-22T01:39:59;21.73;;;16.17;;
18322;SDS011;9287;49.456;11.064;2024-03-22T01:42:25;22.43;;;15.60;;
18322;SDS011;9287;49.456;11.064;2024-03-22T01:44:53;22.27;;;15.57;;
18322;SDS011;9287;49.456;11.064;2024-03-22T01:47:19;21.03;;;14.97;;
18322;SDS011;9287;49.456;11.064;2024-03-22T01:49:46;25.27;;;16.10;;
18322;SDS011;9287;49.456;11.064;2024-03-22T01:52:13;18.80;;;15.07;;
18322;SDS011;9287;49.456;11.064;2024-03-22T01:54:40;25.27;;;16.20;;
18322;SDS011;9287;49.456;11.064;2024-03-22T01:57:06;21.73;;;16.30;;
18322;SDS011;9287;49.456;11.064;2024-03-22T01:59:33;23.53;;;17.00;;
18322;SDS011;9287;49.456;11.064;2024-03-22T02:02:01;21.47;;;15.50;;
18322;SDS011;9287;49.456;11.064;2024-03-22T02:04:28;22.57;;;15.73;;
18322;SDS011;9287;49.456;11.064;2024-03-22T02:06:54;18.43;;;14.23;;
18322;SDS011;9287;49.456;11.064;2024-03-22T02:09:21;18.73;;;14.13;;
18322;SDS011;9287;49.456;11.064;2024-03-22T02:11:47;17.63;;;14.43;;
18322;SDS011;9287;49.456;11.064;2024-03-22T02:14:14;18.33;;;14.23;;
18322;SDS011;9287;49.456;11.064;2024-03-22T02:16:40;18.53;;;13.47;;
18322;SDS011;9287;49.456;11.064;2024-03-22T02:19:08;17.17;;;13.27;;
18322;SDS011;9287;49.456;11.064;2024-03-22T02:21:34;19.37;;;13.50;;
18322;SDS011;9287;49.456;11.064;2024-03-22T02:24:03;18.33;;;13.50;;
18322;SDS011;9287;49.456;11.064;2024-03-22T02:26:29;17.27;;;13.57;;
18322;SDS011;9287;49.456;11.064;2024-03-22T02:28:56;17.97;;;13.43;;
18322;SDS011;9287;49.456;11.064;2024-03-22T02:31:22;17.77;;;13.20;;
18322;SDS011;9287;49.456;11.064;2024-03-22T02:33:50;19.27;;;13.93;;
18322;SDS011;9287;49.456;11.064;2024-03-22T02:36:17;17.57;;;13.23;;
18322;SDS011;9287;49.456;11.064;2024-03-22T02:38:44;17.73;;;13.67;;
18322;SDS011;9287;49.456;11.064;2024-03-22T02:41:11;20.40;;;14.00;;
18322;SDS011;9287;49.456;11.064;2024-03-22T02:43:38;18.30;;;13.77;;
18322;SDS011;9287;49.456;11.064;2024-03-22T02:46:03;17.33;;;13.87;;
18322;SDS011;9287;49.456;11.064;2024-03-22T02:48:30;19.27;;;13.30;;
18322;SDS011;9287;49.456;11.064;2024-03-22T02:50:57;17.10;;;13.33;;
18322;SDS011;9287;49.456;11.064;2024-03-22T02:53:24;18.63;;;14.20;;
18322;SDS011;9287;49.456;11.064;2024-03-22T02:55:50;19.03;;;13.73;;
18322;SDS011;9287;49.456;11.064;2024-03-22T02:58:19;18.93;;;14.40;;
18322;SDS011;9287;49.456;11.064;2024-03-22T03:00:45;18.60;;;13.30;;
18322;SDS011;9287;49.456;11.064;2024-03-22T03:03:12;19.53;;;14.23;;
18322;SDS011;9287;49.456;11.064;2024-03-22T03:05:38;16.83;;;13.47;;
18322;SDS011;9287;49.456;11.064;2024-03-22T03:08:06;17.93;;;13.47;;
18322;SDS011;9287;49.456;11.064;2024-03-22T03:10:32;17.77;;;12.70;;
18322;SDS011;9287;49.456;11.064;2024-03-22T03:12:59;20.60;;;14.40;;
18322;SDS011;9287;49.456;11.064;2024-03-22T03:15:26;17.53;;;13.33;;
18322;SDS011;9287;49.456;11.064;2024-03-22T03:17:53;25.20;;;14.57;;
18322;SDS011;9287;49.456;11.064;2024-03-22T03:20:19;21.80;;;13.93;;
18322;SDS011;9287;49.456;11.064;2024-03-22T03:22:45;20.53;;;14.23;;
18322;SDS011;9287;49.456;11.064;2024-03-22T03:25:11;17.93;;;13.83;;
18322;SDS011;9287;49.456;11.064;2024-03-22T03:27:38;17.33;;;13.40;;
18322;SDS011;9287;49.456;11.064;2024-03-22T03:30:04;18.17;;;13.57;;
18322;SDS011;9287;49.456;11.064;2024-03-22T03:32:33;20.33;;;15.00;;
18322;SDS011;9287;49.456;11.064;2024-03-22T03:34:59;24.40;;;16.57;;
18322;SDS011;9287;49.456;11.064;2024-03-22T03:37:26;23.40;;;17.13;;
18322;SDS011;9287;49.456;11.064;2024-03-22T03:39:52;24.17;;;16.90;;
18322;SDS011;9287;49.456;11.064;2024-03-22T03:42:19;25.47;;;18.00;;
18322;SDS011;9287;49.456;11.064;2024-03-22T03:44:45;26.50;;;18.00;;
18322;SDS011;9287;49.456;11.064;2024-03-22T03:47:11;23.87;;;16.53;;
18322;SDS011;9287;49.456;11.064;2024-03-22T03:49:39;26.47;;;17.70;;
18322;SDS011;9287;49.456;11.064;2024-03-22T03:52:05;26.70;;;17.63;;
18322;SDS011;9287;49.456;11.064;2024-03-22T03:54:31;21.40;;;15.97;;
18322;SDS011;9287;49.456;11.064;2024-03-22T03:56:59;29.87;;;18.30;;
18322;SDS011;9287;49.456;11.064;2024-03-22T03:59:25;27.37;;;19.13;;
18322;SDS011;9287;49.456;11.064;2024-03-22T04:01:52;26.93;;;17.27;;
18322;SDS011;9287;49.456;11.064;2024-03-22T04:04:18;26.80;;;17.53;;
18322;SDS011;9287;49.456;11.064;2024-03-22T04:06:46;23.83;;;16.37;;
18322;SDS011;9287;49.456;11.064;2024-03-22T04:09:12;24.07;;;16.93;;
18322;SDS011;9287;49.456;11.064;2024-03-22T04:11:39;23.63;;;17.47;;
18322;SDS011;9287;49.456;11.064;2024-03-22T04:14:05;22.63;;;16.03;;
18322;SDS011;9287;49.456;11.064;2024-03-22T04:16:31;26.27;;;17.20;;
18322;SDS011;9287;49.456;11.064;2024-03-22T04:18:58;23.67;;;17.73;;
18322;SDS011;9287;49.456;11.064;2024-03-22T04:21:24;27.70;;;17.53;;
18322;SDS011;9287;49.456;11.064;2024-03-22T04:23:52;24.17;;;16.97;;
18322;SDS011;9287;49.456;11.064;2024-03-22T04:26:18;24.57;;;17.17;;
18322;SDS011;9287;49.456;11.064;2024-03-22T04:28:44;30.43;;;17.30;;
18322;SDS011;9287;49.456;11.064;2024-03-22T04:31:12;27.63;;;17.17;;
18322;SDS011;9287;49.456;11.064;2024-03-22T04:33:38;25.63;;;18.33;;
18322;SDS011;9287;49.456;11.064;2024-03-22T04:36:05;27.20;;;18.30;;
18322;SDS011;9287;49.456;11.064;2024-03-22T04:38:31;28.50;;;17.87;;
18322;SDS011;9287;49.456;11.064;2024-03-22T04:41:00;30.20;;;18.00;;
18322;SDS011;9287;49.456;11.064;2024-03-22T04:43:27;28.30;;;17.50;;
18322;SDS011;9287;49.456;11.064;2024-03-22T04:45:53;27.23;;;17.43;;
18322;SDS011;9287;49.456;11.064;2024-03-22T04:48:21;27.47;;;17.87;;
18322;SDS011;9287;49.456;11.064;2024-03-22T04:50:48;22.37;;;16.90;;
18322;SDS011;9287;49.456;11.064;2024-03-22T04:53:15;25.10;;;17.03;;
18322;SDS011;9287;49.456;11.064;2024-03-22T04:55:42;23.20;;;15.93;;
18322;SDS011;9287;49.456;11.064;2024-03-22T04:58:12;24.43;;;17.40;;
18322;SDS011;9287;49.456;11.064;2024-03-22T05:00:38;29.77;;;17.83;;
18322;SDS011;9287;49.456;11.064;2024-03-22T05:03:05;25.07;;;16.57;;
18322;SDS011;9287;49.456;11.064;2024-03-22T05:05:31;23.57;;;15.83;;
18322;SDS011;9287;49.456;11.064;2024-03-22T05:07:58;25.57;;;16.37;;
18322;SDS011;9287;49.456;11.064;2024-03-22T05:10:24;22.70;;;16.43;;
18322;SDS011;9287;49.456;11.064;2024-03-22T05:12:51;25.27;;;16.57;;
18322;SDS011;9287;49.456;11.064;2024-03-22T05:15:18;23.97;;;16.13;;
18322;SDS011;9287;49.456;11.064;2024-03-22T05:17:45;23.63;;;16.23;;
18322;SDS011;9287;49.456;11.064;2024-03-22T05:20:11;26.90;;;16.40;;
18322;SDS011;9287;49.456;11.064;2024-03-22T05:22:38;21.60;;;15.50;;
18322;SDS011;9287;49.456;11.064;2024-03-22T05:25:04;22.90;;;15.77;;
18322;SDS011;9287;49.456;11.064;2024-03-22T05:27:33;22.97;;;16.27;;
18322;SDS011;9287;49.456;11.064;2024-03-22T05:29:59;22.27;;;16.13;;
18322;SDS011;9287;49.456;11.064;2024-03-22T05:32:29;24.77;;;16.83;;
18322;SDS011;9287;49.456;11.064;2024-03-22T05:34:55;23.37;;;16.57;;
18322;SDS011;9287;49.456;11.064;2024-03-22T05:37:22;22.67;;;14.80;;
18322;SDS011;9287;49.456;11.064;2024-03-22T05:39:48;18.73;;;13.43;;
18322;SDS011;9287;49.456;11.064;2024-03-22T05:42:15;18.13;;;13.50;;
18322;SDS011;9287;49.456;11.064;2024-03-22T05:44:41;21.73;;;13.73;;
18322;SDS011;9287;49.456;11.064;2024-03-22T05:47:08;16.20;;;12.43;;
18322;SDS011;9287;49.456;11.064;2024-03-22T05:49:36;18.30;;;13.40;;
18322;SDS011;9287;49.456;11.064;2024-03-22T05:52:02;21.03;;;13.60;;
18322;SDS011;9287;49.456;11.064;2024-03-22T05:54:28;18.17;;;13.77;;
18322;SDS011;9287;49.456;11.064;2024-03-22T05:56:55;18.43;;;13.07;;
18322;SDS011;9287;49.456;11.064;2024-03-22T05:59:21;20.57;;;14.63;;
18322;SDS011;9287;49.456;11.064;2024-03-22T06:01:48;23.67;;;15.90;;
18322;SDS011;9287;49.456;11.064;2024-03-22T06:04:14;23.43;;;15.73;;
18322;SDS011;9287;49.456;11.064;2024-03-22T06:06:42;23.67;;;16.07;;
18322;SDS011;9287;49.456;11.064;2024-03-22T06:09:08;23.73;;;15.83;;
18322;SDS011;9287;49.456;11.064;2024-03-22T06:11:36;23.00;;;16.53;;
18322;SDS011;9287;49.456;11.064;2024-03-22T06:14:05;22.13;;;16.83;;
18322;SDS011;9287;49.456;11.064;2024-03-22T06:16:32;25.03;;;15.67;;
18322;SDS011;9287;49.456;11.064;2024-03-22T06:18:57;20.83;;;14.67;;
18322;SDS011;9287;49.456;11.064;2024-03-22T06:21:24;22.37;;;15.33;;
18322;SDS011;9287;49.456;11.064;2024-03-22T06:23:52;22.77;;;15.13;;
18322;SDS011;9287;49.456;11.064;2024-03-22T06:26:19;20.23;;;14.23;;
18322;SDS011;9287;49.456;11.064;2024-03-22T06:28:45;21.67;;;15.13;;
18322;SDS011;9287;49.456;11.064;2024-03-22T06:31:12;22.30;;;15.33;;
18322;SDS011;9287;49.456;11.064;2024-03-22T06:33:37;24.40;;;15.23;;
18322;SDS011;9287;49.456;11.064;2024-03-22T06:36:04;20.73;;;14.43;;
18322;SDS011;9287;49.456;11.064;2024-03-22T06:38:30;22.70;;;14.67;;
18322;SDS011;9287;49.456;11.064;2024-03-22T06:40:59;20.83;;;14.33;;
18322;SDS011;9287;49.456;11.064;2024-03-22T06:43:24;21.67;;;14.03;;
18322;SDS011;9287;49.456;11.064;2024-03-22T06:45:51;19.97;;;14.43;;
18322;SDS011;9287;49.456;11.064;2024-03-22T06:48:17;19.57;;;13.63;;
18322;SDS011;9287;49.456;11.064;2024-03-22T06:50:44;21.33;;;13.87;;
18322;SDS011;9287;49.456;11.064;2024-03-22T06:53:11;18.07;;;13.17;;
18322;SDS011;9287;49.456;11.064;2024-03-22T06:55:38;18.30;;;13.00;;
18322;SDS011;9287;49.456;11.064;2024-03-22T06:58:05;19.70;;;13.17;;
18322;SDS011;9287;49.456;11.064;2024-03-22T07:00:32;20.30;;;12.70;;
18322;SDS011;9287;49.456;11.064;2024-03-22T07:02:59;16.67;;;12.83;;
18322;SDS011;9287;49.456;11.064;2024-03-22T07:05:27;21.07;;;13.07;;
18322;SDS011;9287;49.456;11.064;2024-03-22T07:07:53;15.77;;;12.07;;
18322;SDS011;9287;49.456;11.064;2024-03-22T07:10:22;18.10;;;13.20;;
18322;SDS011;9287;49.456;11.064;2024-03-22T07:12:50;16.30;;;12.00;;
18322;SDS011;9287;49.456;11.064;2024-03-22T07:15:18;21.60;;;12.63;;
18322;SDS011;9287;49.456;11.064;2024-03-22T07:17:44;16.27;;;12.20;;
18322;SDS011;9287;49.456;11.064;2024-03-22T07:20:11;21.60;;;13.13;;
18322;SDS011;9287;49.456;11.064;2024-03-22T07:22:37;20.67;;;13.50;;
18322;SDS011;9287;49.456;11.064;2024-03-22T07:25:04;18.67;;;12.00;;
18322;SDS011;9287;49.456;11.064;2024-03-22T07:27:30;19.73;;;12.67;;
18322;SDS011;9287;49.456;11.064;2024-03-22T07:29:57;20.37;;;12.33;;
18322;SDS011;9287;49.456;11.064;2024-03-22T07:32:25;17.80;;;13.03;;
18322;SDS011;9287;49.456;11.064;2024-03-22T07:34:51;17.73;;;12.43;;
18322;SDS011;9287;49.456;11.064;2024-03-22T07:37:18;18.10;;;12.53;;
18322;SDS011;9287;49.456;11.064;2024-03-22T07:39:43;19.70;;;12.17;;
18322;SDS011;9287;49.456;11.064;2024-03-22T07:42:10;20.00;;;12.53;;
18322;SDS011;9287;49.456;11.064;2024-03-22T07:44:37;19.90;;;11.87;;
18322;SDS011;9287;49.456;11.064;2024-03-22T07:47:03;24.90;;;13.60;;
18322;SDS011;9287;49.456;11.064;2024-03-22T07:49:31;18.40;;;13.23;;
18322;SDS011;9287;49.456;11.064;2024-03-22T07:51:59;19.13;;;13.13;;
18322;SDS011;9287;49.456;11.064;2024-03-22T07:54:25;17.90;;;13.27;;
18322;SDS011;9287;49.456;11.064;2024-03-22T07:56:52;19.13;;;12.90;;
18322;SDS011;9287;49.456;11.064;2024-03-22T07:59:18;21.77;;;13.03;;
18322;SDS011;9287;49.456;11.064;2024-03-22T08:01:45;20.67;;;13.67;;
18322;SDS011;9287;49.456;11.064;2024-03-22T08:04:12;21.30;;;14.33;;
18322;SDS011;9287;49.456;11.064;2024-03-22T08:06:40;21.30;;;14.43;;
18322;SDS011;9287;49.456;11.064;2024-03-22T08:09:06;20.87;;;13.63;;
18322;SDS011;9287;49.456;11.064;2024-03-22T08:11:33;19.23;;;13.40;;
18322;SDS011;9287;49.456;11.064;2024-03-22T08:13:59;20.23;;;13.77;;
18322;SDS011;9287;49.456;11.064;2024-03-22T08:16:28;22.70;;;14.13;;
18322;SDS011;9287;49.456;11.064;2024-03-22T08:18:54;20.73;;;14.43;;
18322;SDS011;9287;49.456;11.064;2024-03-22T08:21:22;18.73;;;13.27;;
18322;SDS011;9287;49.456;11.064;2024-03-22T08:23:49;19.90;;;12.80;;
18322;SDS011;9287;49.456;11.064;2024-03-22T08:26:16;19.67;;;12.77;;
18322;SDS011;9287;49.456;11.064;2024-03-22T08:28:42;18.93;;;13.50;;
18322;SDS011;9287;49.456;11.064;2024-03-22T08:31:09;20.00;;;12.13;;
18322;SDS011;9287;49.456;11.064;2024-03-22T08:33:35;17.87;;;13.77;;
18322;SDS011;9287;49.456;11.064;2024-03-22T08:36:02;19.37;;;12.97;;
18322;SDS011;9287;49.456;11.064;2024-03-22T08:38:28;18.60;;;12.83;;
18322;SDS011;9287;49.456;11.064;2024-03-22T08:40:56;17.33;;;11.70;;
18322;SDS011;9287;49.456;11.064;2024-03-22T08:43:22;19.77;;;13.80;;
18322;SDS011;9287;49.456;11.064;2024-03-22T08:45:51;21.93;;;13.50;;
18322;SDS011;9287;49.456;11.064;2024-03-22T08:48:16;20.63;;;12.50;;
18322;SDS011;9287;49.456;11.064;2024-03-22T08:50:44;14.37;;;11.77;;
18322;SDS011;9287;49.456;11.064;2024-03-22T08:53:10;15.40;;;10.53;;
18322;SDS011;9287;49.456;11.064;2024-03-22T08:55:37;16.30;;;10.80;;
18322;SDS011;9287;49.456;11.064;2024-03-22T08:58:04;18.65;;;10.27;;
18322;SDS011;9287;49.456;11.064;2024-03-22T09:00:31;16.25;;;10.63;;
18322;SDS011;9287;49.456;11.064;2024-03-22T09:02:57;13.95;;;10.60;;
18322;SDS011;9287;49.456;11.064;2024-03-22T09:05:24;14.00;;;9.95;;
18322;SDS011;9287;49.456;11.064;2024-03-22T09:07:49;11.35;;;9.30;;
18322;SDS011;9287;49.456;11.064;2024-03-22T09:10:18;13.55;;;9.23;;
18322;SDS011;9287;49.456;11.064;2024-03-22T09:12:44;13.27;;;10.52;;
18322;SDS011;9287;49.456;11.064;2024-03-22T09:15:12;16.08;;;10.07;;
18322;SDS011;9287;49.456;11.064;2024-03-22T09:17:38;11.38;;;9.77;;
18322;SDS011;9287;49.456;11.064;2024-03-22T09:20:05;10.05;;;9.02;;
18322;SDS011;9287;49.456;11.064;2024-03-22T09:22:33;11.32;;;9.77;;
18322;SDS011;9287;49.456;11.064;2024-03-22T09:25:00;11.88;;;10.00;;
18322;SDS011;9287;49.456;11.064;2024-03-22T09:27:26;13.10;;;9.57;;
18322;SDS011;9287;49.456;11.064;2024-03-22T09:29:53;11.50;;;9.65;;
18322;SDS011;9287;49.456;11.064;2024-03-22T09:32:20;11.57;;;9.98;;
18322;SDS011;9287;49.456;11.064;2024-03-22T09:34:48;13.52;;;10.35;;
18322;SDS011;9287;49.456;11.064;2024-03-22T09:37:14;11.13;;;9.45;;
18322;SDS011;9287;49.456;11.064;2024-03-22T09:39:43;11.00;;;9.88;;
18322;SDS011;9287;49.456;11.064;2024-03-22T09:42:10;11.30;;;9.82;;
18322;SDS011;9287;49.456;11.064;2024-03-22T09:44:42;9.20;;;8.30;;
18322;SDS011;9287;49.456;11.064;2024-03-22T09:47:13;10.63;;;9.50;;
18322;SDS011;9287;49.456;11.064;2024-03-22T09:49:43;10.55;;;9.45;;
18322;SDS011;9287;49.456;11.064;2024-03-22T09:52:12;11.80;;;9.10;;
18322;SDS011;9287;49.456;11.064;2024-03-22T09:54:40;10.85;;;8.85;;
18322;SDS011;9287;49.456;11.064;2024-03-22T09:57:07;9.88;;;8.88;;
18322;SDS011;9287;49.456;11.064;2024-03-22T09:59:38;12.57;;;9.05;;
18322;SDS011;9287;49.456;11.064;2024-03-22T10:02:04;11.68;;;8.55;;
18322;SDS011;9287;49.456;11.064;2024-03-22T10:04:35;10.85;;;9.38;;
18322;SDS011;9287;49.456;11.064;2024-03-22T10:07:02;9.55;;;8.65;;
18322;SDS011;9287;49.456;11.064;2024-03-22T10:09:30;10.48;;;8.82;;
18322;SDS011;9287;49.456;11.064;2024-03-22T10:11:56;11.73;;;8.95;;
18322;SDS011;9287;49.456;11.064;2024-03-22T10:14:23;10.05;;;8.70;;
18322;SDS011;9287;49.456;11.064;2024-03-22T10:16:50;11.70;;;9.20;;
18322;SDS011;9287;49.456;11.064;2024-03-22T10:19:19;10.82;;;9.73;;
18322;SDS011;9287;49.456;11.064;2024-03-22T10:21:45;10.05;;;8.80;;
18322;SDS011;9287;49.456;11.064;2024-03-22T10:24:14;11.23;;;8.82;;
18322;SDS011;9287;49.456;11.064;2024-03-22T10:26:40;11.45;;;8.98;;
18322;SDS011;9287;49.456;11.064;2024-03-22T10:29:08;10.38;;;8.40;;
18322;SDS011;9287;49.456;11.064;2024-03-22T10:31:35;8.77;;;7.57;;
18322;SDS011;9287;49.456;11.064;2024-03-22T10:34:02;7.88;;;7.07;;
18322;SDS011;9287;49.456;11.064;2024-03-22T10:36:29;8.70;;;6.00;;
18322;SDS011;9287;49.456;11.064;2024-03-22T10:38:57;6.82;;;5.68;;
18322;SDS011;9287;49.456;11.064;2024-03-22T10:41:26;8.05;;;6.18;;
18322;SDS011;9287;49.456;11.064;2024-03-22T10:43:52;9.50;;;7.43;;
18322;SDS011;9287;49.456;11.064;2024-03-22T10:46:19;7.32;;;6.30;;
18322;SDS011;9287;49.456;11.064;2024-03-22T10:48:47;6.13;;;5.38;;
18322;SDS011;9287;49.456;11.064;2024-03-22T10:51:14;4.75;;;4.18;;
18322;SDS011;9287;49.456;11.064;2024-03-22T10:53:42;4.97;;;3.78;;
18322;SDS011;9287;49.456;11.064;2024-03-22T10:56:09;3.58;;;3.28;;
18322;SDS011;9287;49.456;11.064;2024-03-22T10:58:40;7.72;;;5.03;;
18322;SDS011;9287;49.456;11.064;2024-03-22T11:01:10;4.72;;;3.85;;
18322;SDS011;9287;49.456;11.064;2024-03-22T11:03:48;4.72;;;3.20;;
18322;SDS011;9287;49.456;11.064;2024-03-22T11:06:17;4.80;;;3.03;;
18322;SDS011;9287;49.456;11.064;2024-03-22T11:08:44;4.40;;;3.78;;
18322;SDS011;9287;49.456;11.064;2024-03-22T11:11:16;3.65;;;3.35;;
18322;SDS011;9287;49.456;11.064;2024-03-22T11:13:46;5.38;;;3.83;;
18322;SDS011;9287;49.456;11.064;2024-03-22T11:16:13;5.70;;;4.55;;
18322;SDS011;9287;49.456;11.064;2024-03-22T11:18:41;4.20;;;3.80;;
18322;SDS011;9287;49.456;11.064;2024-03-22T11:21:07;5.60;;;4.63;;
18322;SDS011;9287;49.456;11.064;2024-03-22T11:23:34;6.82;;;4.80;;
18322;SDS011;9287;49.456;11.064;2024-03-22T11:26:01;6.55;;;5.45;;
18322;SDS011;9287;49.456;11.064;2024-03-22T11:28:28;5.50;;;4.43;;
18322;SDS011;9287;49.456;11.064;2024-03-22T11:30:56;5.50;;;4.68;;
18322;SDS011;9287;49.456;11.064;2024-03-22T11:33:23;4.70;;;4.13;;
18322;SDS011;9287;49.456;11.064;2024-03-22T11:35:48;6.07;;;4.10;;
18322;SDS011;9287;49.456;11.064;2024-03-22T11:38:16;5.50;;;4.78;;
18322;SDS011;9287;49.456;11.064;2024-03-22T11:40:42;5.85;;;4.78;;
18322;SDS011;9287;49.456;11.064;2024-03-22T11:43:09;5.05;;;4.47;;
18322;SDS011;9287;49.456;11.064;2024-03-22T11:45:39;5.70;;;4.45;;
18322;SDS011;9287;49.456;11.064;2024-03-22T11:48:07;4.25;;;3.85;;
18322;SDS011;9287;49.456;11.064;2024-03-22T11:50:35;5.80;;;4.32;;
18322;SDS011;9287;49.456;11.064;2024-03-22T11:53:02;4.18;;;3.53;;
18322;SDS011;9287;49.456;11.064;2024-03-22T11:55:30;7.50;;;4.03;;
18322;SDS011;9287;49.456;11.064;2024-03-22T11:57:57;5.80;;;3.90;;
18322;SDS011;9287;49.456;11.064;2024-03-22T12:00:23;5.18;;;4.15;;
18322;SDS011;9287;49.456;11.064;2024-03-22T12:02:51;7.25;;;3.67;;
18322;SDS011;9287;49.456;11.064;2024-03-22T12:05:19;3.70;;;3.15;;
18322;SDS011;9287;49.456;11.064;2024-03-22T12:07:47;4.15;;;3.22;;
18322;SDS011;9287;49.456;11.064;2024-03-22T12:10:13;4.63;;;4.13;;
18322;SDS011;9287;49.456;11.064;2024-03-22T12:12:40;4.93;;;4.43;;
18322;SDS011;9287;49.456;11.064;2024-03-22T12:15:06;4.63;;;4.22;;
18322;SDS011;9287;49.456;11.064;2024-03-22T12:17:33;5.18;;;4.30;;
18322;SDS011;9287;49.456;11.064;2024-03-22T12:20:01;4.72;;;4.28;;
18322;SDS011;9287;49.456;11.064;2024-03-22T12:22:30;5.05;;;4.30;;
18322;SDS011;9287;49.456;11.064;2024-03-22T12:24:56;5.22;;;4.63;;
18322;SDS011;9287;49.456;11.064;2024-03-22T12:27:24;6.82;;;5.38;;
18322;SDS011;9287;49.456;11.064;2024-03-22T12:29:50;5.72;;;5.13;;
18322;SDS011;9287;49.456;11.064;2024-03-22T12:32:17;5.57;;;4.97;;
18322;SDS011;9287;49.456;11.064;2024-03-22T12:34:43;7.05;;;5.20;;
18322;SDS011;9287;49.456;11.064;2024-03-22T12:37:10;5.47;;;4.97;;
18322;SDS011;9287;49.456;11.064;2024-03-22T12:39:37;6.28;;;4.63;;
18322;SDS011;9287;49.456;11.064;2024-03-22T12:42:04;4.72;;;4.30;;
18322;SDS011;9287;49.456;11.064;2024-03-22T12:44:31;4.60;;;3.83;;
18322;SDS011;9287;49.456;11.064;2024-03-22T12:46:57;4.75;;;4.28;;
18322;SDS011;9287;49.456;11.064;2024-03-22T12:49:24;5.55;;;4.60;;
18322;SDS011;9287;49.456;11.064;2024-03-22T12:51:51;4.93;;;3.80;;
18322;SDS011;9287;49.456;11.064;2024-03-22T12:54:17;3.75;;;3.45;;
18322;SDS011;9287;49.456;11.064;2024-03-22T12:56:47;4.85;;;4.35;;
18322;SDS011;9287;49.456;11.064;2024-03-22T12:59:13;3.85;;;3.55;;
18322;SDS011;9287;49.456;11.064;2024-03-22T13:01:40;3.85;;;3.38;;
18322;SDS011;9287;49.456;11.064;2024-03-22T13:04:06;3.15;;;2.78;;
18322;SDS011;9287;49.456;11.064;2024-03-22T13:06:33;3.90;;;3.45;;
18322;SDS011;9287;49.456;11.064;2024-03-22T13:08:59;3.45;;;3.00;;
18322;SDS011;9287;49.456;11.064;2024-03-22T13:11:27;3.03;;;2.72;;
18322;SDS011;9287;49.456;11.064;2024-03-22T13:13:54;4.57;;;3.53;;
18322;SDS011;9287;49.456;11.064;2024-03-22T13:16:22;4.20;;;3.80;;
18322;SDS011;9287;49.456;11.064;2024-03-22T13:18:48;4.97;;;4.32;;
18322;SDS011;9287;49.456;11.064;2024-03-22T13:21:15;4.15;;;3.85;;
18322;SDS011;9287;49.456;11.064;2024-03-22T13:23:41;4.55;;;3.80;;
18322;SDS011;9287;49.456;11.064;2024-03-22T13:26:07;3.92;;;3.63;;
18322;SDS011;9287;49.456;11.064;2024-03-22T13:28:33;4.25;;;3.90;;
18322;SDS011;9287;49.456;11.064;2024-03-22T13:31:03;4.13;;;3.75;;
18322;SDS011;9287;49.456;11.064;2024-03-22T13:33:31;4.68;;;3.63;;
18322;SDS011;9287;49.456;11.064;2024-03-22T13:35:58;4.85;;;3.25;;
18322;SDS011;9287;49.456;11.064;2024-03-22T13:38:24;4.97;;;4.22;;
18322;SDS011;9287;49.456;11.064;2024-03-22T13:40:55;6.10;;;4.32;;
18322;SDS011;9287;49.456;11.064;2024-03-22T13:43:21;4.30;;;3.42;;
18322;SDS011;9287;49.456;11.064;2024-03-22T13:45:49;4.18;;;3.55;;
18322;SDS011;9287;49.456;11.064;2024-03-22T13:48:21;6.50;;;3.40;;
18322;SDS011;9287;49.456;11.064;2024-03-22T13:50:52;4.70;;;3.15;;
18322;SDS011;9287;49.456;11.064;2024-03-22T13:53:19;2.60;;;2.40;;
18322;SDS011;9287;49.456;11.064;2024-03-22T13:55:47;2.40;;;2.20;;
18322;SDS011;9287;49.456;11.064;2024-03-22T13:58:13;3.53;;;2.47;;
18322;SDS011;9287;49.456;11.064;2024-03-22T14:00:40;5.28;;;3.05;;
18322;SDS011;9287;49.456;11.064;2024-03-22T14:03:06;2.42;;;1.95;;
18322;SDS011;9287;49.456;11.064;2024-03-22T14:05:34;2.78;;;2.10;;
18322;SDS011;9287;49.456;11.064;2024-03-22T14:08:00;2.50;;;2.30;;
18322;SDS011;9287;49.456;11.064;2024-03-22T14:10:28;2.42;;;2.22;;
18322;SDS011;9287;49.456;11.064;2024-03-22T14:12:56;3.13;;;2.05;;
18322;SDS011;9287;49.456;11.064;2024-03-22T14:15:23;2.42;;;1.88;;
18322;SDS011;9287;49.456;11.064;2024-03-22T14:17:50;3.47;;;2.42;;
18322;SDS011;9287;49.456;11.064;2024-03-22T14:20:17;2.30;;;2.20;;
18322;SDS011;9287;49.456;11.064;2024-03-22T14:22:45;3.03;;;2.72;;
18322;SDS011;9287;49.456;11.064;2024-03-22T14:25:12;3.63;;;1.75;;
18322;SDS011;9287;49.456;11.064;2024-03-22T14:27:38;2.45;;;1.90;;
18322;SDS011;9287;49.456;11.064;2024-03-22T14:30:07;3.05;;;2.40;;